This is the latest recevied weather packets stored in our database for station/object SQ6PCH-10. If no packets are shown the sender has not sent any weather packets the latest 10 day(s).
| Time | Temp. | Humidity | Pressure | Rain* | Wind** | Luminosity | Snow |
|---|---|---|---|---|---|---|---|
| 1777862917 | 12.22° C | 49% | 997.7 hPa | - | - | - | - |
| 1777862317 | 12.22° C | 49% | 997.6 hPa | - | - | - | - |
| 1777861717 | 12.22° C | 50% | 997.6 hPa | - | - | - | - |
| 1777861117 | 12.22° C | 50% | 997.6 hPa | - | - | - | - |
| 1777860517 | 12.22° C | 50% | 997.7 hPa | - | - | - | - |
| 1777859916 | 12.22° C | 49% | 997.7 hPa | - | - | - | - |
| 1777859316 | 12.78° C | 49% | 997.6 hPa | - | - | - | - |
| 1777858716 | 13.33° C | 47% | 997.6 hPa | - | - | - | - |
| 1777858116 | 13.33° C | 46% | 997.5 hPa | - | - | - | - |
| 1777857516 | 13.89° C | 44% | 997.5 hPa | - | - | - | - |
| 1777856916 | 13.89° C | 44% | 997.5 hPa | - | - | - | - |
| 1777856315 | 13.89° C | 44% | 997.7 hPa | - | - | - | - |
| 1777855715 | 13.33° C | 47% | 997.7 hPa | - | - | - | - |
| 1777855115 | 13.33° C | 48% | 997.7 hPa | - | - | - | - |
| 1777854515 | 12.78° C | 49% | 997.7 hPa | - | - | - | - |
| 1777853915 | 13.33° C | 49% | 997.7 hPa | - | - | - | - |
| 1777853315 | 13.33° C | 49% | 997.7 hPa | - | - | - | - |
| 1777852714 | 12.78° C | 50% | 997.8 hPa | - | - | - | - |
| 1777852114 | 13.33° C | 49% | 997.9 hPa | - | - | - | - |
| 1777851514 | 13.33° C | 48% | 998 hPa | - | - | - | - |
| 1777850914 | 13.89° C | 47% | 998 hPa | - | - | - | - |
| 1777850314 | 14.44° C | 44% | 998 hPa | - | - | - | - |
| 1777849714 | 14.44° C | 44% | 998.2 hPa | - | - | - | - |
| 1777849113 | 14.44° C | 44% | 998.2 hPa | - | - | - | - |
| 1777848513 | 14.44° C | 43% | 998.3 hPa | - | - | - | - |
* Rain since midnight (hover to see other rain measurements)
** Current wind speed in m/s (hover to see current wind gust speed)